createdAt,value
2019-05-02T00:01:32.082Z,19.40
2019-05-02T00:04:05.757Z,20.50
2019-05-02T00:06:38.002Z,18.32
2019-05-02T00:09:11.190Z,20.45
2019-05-02T00:11:41.458Z,18.87
2019-05-02T00:14:12.187Z,19.52
2019-05-02T00:16:45.100Z,19.92
2019-05-02T00:19:15.369Z,18.98
2019-05-02T00:21:45.680Z,17.80
2019-05-02T00:24:15.818Z,19.50
2019-05-02T00:26:45.986Z,19.82
2019-05-02T00:29:18.902Z,18.90
2019-05-02T00:31:48.868Z,18.67
2019-05-02T00:34:19.061Z,19.42
2019-05-02T00:36:49.165Z,19.62
2019-05-02T00:39:19.425Z,19.65
2019-05-02T00:41:49.551Z,20.45
2019-05-02T00:44:19.665Z,19.35
2019-05-02T00:46:49.861Z,19.67
2019-05-02T00:49:19.989Z,19.15
2019-05-02T00:51:50.164Z,16.30
2019-05-02T00:54:24.353Z,16.30
2019-05-02T00:56:52.137Z,16.32
2019-05-02T00:59:22.263Z,16.32
2019-05-02T01:01:59.952Z,16.52
2019-05-02T01:04:33.174Z,15.83
2019-05-02T01:07:04.307Z,15.30
2019-05-02T01:09:37.536Z,16.48
2019-05-02T01:12:08.413Z,15.80
2019-05-02T01:14:39.443Z,15.25
2019-05-02T01:17:09.773Z,15.23
2019-05-02T01:19:39.989Z,13.78
2019-05-02T01:22:10.557Z,15.72
2019-05-02T01:24:42.027Z,14.38
2019-05-02T01:27:21.911Z,15.13
2019-05-02T01:30:11.103Z,14.15
2019-05-02T01:33:10.106Z,15.25
2019-05-02T01:35:46.336Z,14.83
2019-05-02T01:38:31.645Z,15.10
2019-05-02T01:40:58.455Z,15.48
2019-05-02T01:43:30.382Z,13.48
2019-05-02T01:46:00.505Z,15.43
2019-05-02T01:48:30.571Z,14.03
2019-05-02T01:51:04.651Z,12.73
2019-05-02T01:53:34.428Z,14.35
2019-05-02T01:56:04.874Z,12.60
2019-05-02T01:58:35.081Z,13.43
2019-05-02T02:01:05.625Z,13.60
2019-05-02T02:03:40.573Z,12.53
2019-05-02T02:06:10.065Z,12.58
2019-05-02T02:08:40.182Z,11.95
2019-05-02T02:11:10.325Z,12.25
2019-05-02T02:13:40.443Z,13.08
2019-05-02T02:16:10.543Z,13.00
2019-05-02T02:18:46.446Z,13.50
2019-05-02T02:21:27.697Z,13.08
2019-05-02T02:24:05.483Z,12.50
2019-05-02T02:26:35.630Z,13.40
2019-05-02T02:29:07.811Z,12.93
2019-05-02T02:31:39.779Z,14.85
2019-05-02T02:34:10.601Z,13.95
2019-05-02T02:36:40.714Z,11.65
2019-05-02T02:39:14.000Z,13.80
2019-05-02T02:41:45.364Z,13.70
2019-05-02T02:44:33.859Z,13.62
2019-05-02T02:47:11.943Z,13.25
2019-05-02T02:49:37.647Z,13.30
2019-05-02T02:52:09.580Z,13.40
2019-05-02T02:54:43.365Z,13.65
2019-05-02T02:57:26.013Z,13.40
2019-05-02T02:59:47.363Z,13.93
2019-05-02T03:02:17.480Z,13.53
2019-05-02T03:04:47.775Z,14.43
2019-05-02T03:07:25.490Z,13.90
2019-05-02T03:09:49.720Z,13.85
2019-05-02T03:12:47.832Z,13.72
2019-05-02T03:15:27.727Z,13.83
2019-05-02T03:17:52.567Z,12.23
2019-05-02T03:20:22.809Z,13.35
2019-05-02T03:22:57.585Z,13.18
2019-05-02T03:25:49.215Z,14.05
2019-05-02T03:28:01.347Z,12.30
2019-05-02T03:30:37.177Z,13.08
2019-05-02T03:33:11.334Z,11.88
2019-05-02T03:35:48.177Z,13.35
2019-05-02T03:38:13.098Z,11.55
2019-05-02T03:40:52.187Z,11.95
2019-05-02T03:43:25.518Z,11.93
2019-05-02T03:46:20.433Z,13.15
2019-05-02T03:48:48.596Z,12.55
2019-05-02T03:51:25.064Z,12.95
2019-05-02T03:54:05.634Z,11.75
2019-05-02T03:56:26.736Z,12.30
2019-05-02T03:59:01.494Z,15.68
2019-05-02T04:01:38.662Z,15.90
2019-05-02T04:04:05.619Z,16.62
2019-05-02T04:06:36.274Z,14.85
2019-05-02T04:09:08.197Z,15.68
2019-05-02T04:11:40.732Z,14.45
2019-05-02T04:14:17.524Z,15.13
2019-05-02T04:16:42.140Z,15.55
2019-05-02T04:19:14.335Z,15.55
2019-05-02T04:21:45.393Z,15.32
2019-05-02T04:24:16.376Z,16.17
2019-05-02T04:26:56.628Z,15.58
2019-05-02T04:29:31.281Z,15.03
2019-05-02T04:32:04.387Z,17.15
2019-05-02T04:34:30.700Z,14.30
2019-05-02T04:37:03.991Z,15.65
2019-05-02T04:39:34.810Z,14.65
2019-05-02T04:42:13.171Z,15.55
2019-05-02T04:44:59.787Z,16.75
2019-05-02T04:47:17.597Z,15.95
2019-05-02T04:49:44.176Z,14.60
2019-05-02T04:52:17.146Z,15.32
2019-05-02T04:54:49.009Z,15.63
2019-05-02T04:57:29.321Z,15.55
2019-05-02T05:00:06.338Z,15.35
2019-05-02T05:02:34.299Z,15.50
2019-05-02T05:05:00.873Z,15.15
2019-05-02T05:07:41.024Z,15.40
2019-05-02T05:10:03.601Z,16.25
2019-05-02T05:12:38.005Z,15.90
2019-05-02T05:15:07.908Z,15.25
2019-05-02T05:17:38.174Z,15.85
2019-05-02T05:20:13.687Z,15.18
2019-05-02T05:22:44.177Z,16.23
2019-05-02T05:25:21.213Z,15.40
2019-05-02T05:27:52.566Z,14.95
2019-05-02T05:30:21.084Z,15.60
2019-05-02T05:32:51.227Z,14.83
2019-05-02T05:35:21.568Z,16.05
2019-05-02T05:37:53.373Z,17.17
2019-05-02T05:40:30.420Z,17.27
2019-05-02T05:43:02.129Z,17.00
2019-05-02T05:45:30.519Z,16.32
2019-05-02T05:48:01.191Z,17.23
2019-05-02T05:50:32.171Z,16.02
2019-05-02T05:53:03.371Z,15.75
2019-05-02T05:55:33.549Z,16.23
2019-05-02T05:58:12.296Z,17.02
2019-05-02T06:00:37.967Z,15.18
2019-05-02T06:03:14.036Z,16.60
2019-05-02T06:05:40.985Z,15.38
2019-05-02T06:08:13.783Z,14.87
2019-05-02T06:10:43.885Z,15.58
2019-05-02T06:13:16.449Z,14.75
2019-05-02T06:15:46.621Z,16.48
2019-05-02T06:18:16.731Z,15.78
2019-05-02T06:20:47.083Z,17.55
2019-05-02T06:23:17.221Z,16.42
2019-05-02T06:25:50.438Z,15.38
2019-05-02T06:28:20.523Z,16.70
2019-05-02T06:30:50.762Z,15.75
2019-05-02T06:33:20.895Z,17.42
2019-05-02T06:35:51.834Z,15.63
2019-05-02T06:38:22.923Z,15.48
2019-05-02T06:40:53.173Z,15.98
2019-05-02T06:43:23.263Z,17.20
2019-05-02T06:45:53.470Z,16.45
2019-05-02T06:48:23.596Z,15.90
2019-05-02T06:50:53.731Z,16.67
2019-05-02T06:53:23.810Z,18.07
2019-05-02T06:55:55.098Z,17.85
2019-05-02T06:58:29.396Z,16.37
2019-05-02T07:01:01.733Z,17.52
2019-05-02T07:03:31.909Z,18.75
2019-05-02T07:06:02.800Z,17.15
2019-05-02T07:08:33.933Z,19.62
2019-05-02T07:11:04.154Z,17.40
2019-05-02T07:13:36.299Z,17.57
2019-05-02T07:16:16.215Z,18.82
2019-05-02T07:18:49.667Z,19.95
2019-05-02T07:21:23.407Z,18.30
2019-05-02T07:23:53.639Z,17.45
2019-05-02T07:26:23.678Z,20.00
2019-05-02T07:28:53.775Z,19.20
2019-05-02T07:31:23.898Z,20.00
2019-05-02T07:33:54.015Z,21.70
2019-05-02T07:36:24.136Z,19.80
2019-05-02T07:38:57.060Z,18.57
2019-05-02T07:41:28.933Z,20.20
2019-05-02T07:43:57.911Z,20.68
2019-05-02T07:46:28.079Z,20.92
2019-05-02T07:48:58.344Z,19.17
2019-05-02T07:51:28.617Z,21.12
2019-05-02T07:53:59.202Z,21.00
2019-05-02T07:56:29.375Z,20.32
2019-05-02T07:58:59.529Z,19.95
2019-05-02T08:01:29.691Z,21.65
2019-05-02T08:04:04.523Z,21.48
2019-05-02T08:06:35.501Z,22.20
2019-05-02T08:09:07.143Z,20.70
2019-05-02T08:11:38.513Z,20.82
2019-05-02T08:14:08.772Z,20.82
2019-05-02T08:16:38.966Z,22.15
2019-05-02T08:19:09.109Z,23.62
2019-05-02T08:21:39.268Z,20.88
2019-05-02T08:24:09.445Z,20.97
2019-05-02T08:26:58.309Z,20.43
2019-05-02T08:29:28.757Z,20.45
2019-05-02T08:32:01.075Z,21.73
2019-05-02T08:34:32.631Z,22.25
2019-05-02T08:37:04.919Z,20.82
2019-05-02T08:39:35.385Z,22.42
2019-05-02T08:42:06.353Z,20.90
2019-05-02T08:44:49.932Z,20.23
2019-05-02T08:47:18.692Z,18.75
2019-05-02T08:49:42.502Z,19.52
2019-05-02T08:52:12.538Z,19.92
2019-05-02T08:54:42.672Z,19.32
2019-05-02T08:57:12.904Z,21.82
2019-05-02T09:00:00.135Z,19.92
2019-05-02T09:02:41.236Z,22.15
2019-05-02T09:05:06.479Z,20.17
2019-05-02T09:07:38.988Z,21.55
2019-05-02T09:10:09.186Z,19.98
2019-05-02T09:12:45.410Z,20.10
2019-05-02T09:15:19.415Z,18.42
2019-05-02T09:17:54.814Z,21.70
2019-05-02T09:20:24.195Z,19.27
2019-05-02T09:22:56.090Z,20.80
2019-05-02T09:25:28.627Z,21.10
2019-05-02T09:28:02.010Z,19.80
2019-05-02T09:30:33.175Z,19.98
2019-05-02T09:33:06.458Z,19.77
2019-05-02T09:35:37.387Z,20.65
2019-05-02T09:38:16.238Z,19.05
2019-05-02T09:40:47.191Z,20.12
2019-05-02T09:43:19.046Z,19.60
2019-05-02T09:45:49.497Z,19.92
2019-05-02T09:48:22.743Z,20.32
2019-05-02T09:50:53.942Z,19.30
2019-05-02T09:53:25.444Z,19.77
2019-05-02T09:56:02.932Z,19.00
2019-05-02T09:58:43.193Z,19.82
2019-05-02T10:01:31.981Z,20.37
2019-05-02T10:04:05.657Z,19.98
2019-05-02T10:06:42.924Z,19.80
2019-05-02T10:09:18.637Z,20.05
2019-05-02T10:11:52.734Z,18.45
2019-05-02T10:14:24.760Z,19.92
2019-05-02T10:17:05.111Z,20.00
2019-05-02T10:19:32.529Z,18.92
2019-05-02T10:22:12.254Z,19.40
2019-05-02T10:24:57.219Z,17.27
2019-05-02T10:27:27.439Z,17.90
2019-05-02T10:30:08.459Z,18.73
2019-05-02T10:32:37.017Z,19.37
2019-05-02T10:35:08.571Z,17.17
2019-05-02T10:37:39.669Z,17.60
2019-05-02T10:40:15.472Z,19.07
2019-05-02T10:42:42.389Z,17.92
2019-05-02T10:45:16.771Z,18.67
2019-05-02T10:47:46.577Z,17.00
2019-05-02T10:50:22.336Z,18.07
2019-05-02T10:52:52.780Z,20.92
2019-05-02T10:55:24.253Z,19.40
2019-05-02T10:57:54.645Z,19.37
2019-05-02T11:00:29.658Z,18.62
2019-05-02T11:03:12.197Z,19.95
2019-05-02T11:05:44.478Z,20.45
2019-05-02T11:08:14.695Z,21.07
2019-05-02T11:10:45.942Z,20.62
2019-05-02T11:13:37.007Z,21.57
2019-05-02T11:16:35.575Z,19.75
2019-05-02T11:19:24.863Z,19.82
2019-05-02T11:21:59.017Z,21.55
2019-05-02T11:24:27.917Z,20.52
2019-05-02T11:26:58.099Z,19.55
2019-05-02T11:29:28.271Z,20.85
2019-05-02T11:31:58.401Z,21.33
2019-05-02T11:34:28.579Z,21.12
2019-05-02T11:36:59.151Z,20.85
2019-05-02T11:39:40.686Z,20.62
2019-05-02T11:42:04.436Z,21.60
2019-05-02T11:44:34.710Z,20.27
2019-05-02T11:47:04.821Z,20.65
2019-05-02T11:49:34.970Z,20.92
2019-05-02T11:52:05.263Z,20.27
2019-05-02T11:54:39.165Z,21.48
2019-05-02T11:57:07.283Z,20.57
2019-05-02T11:59:37.451Z,19.82
2019-05-02T12:02:25.397Z,20.50
2019-05-02T12:04:56.028Z,18.95
2019-05-02T12:07:26.153Z,19.80
2019-05-02T12:09:57.188Z,20.45
2019-05-02T12:12:34.267Z,20.05
2019-05-02T12:14:59.367Z,19.52
2019-05-02T12:17:29.527Z,20.65
2019-05-02T12:20:05.698Z,20.90
2019-05-02T12:22:42.453Z,19.42
2019-05-02T12:25:25.435Z,20.02
2019-05-02T12:28:11.979Z,21.33
2019-05-02T12:30:52.840Z,19.62
2019-05-02T12:33:42.989Z,19.82
2019-05-02T12:36:16.871Z,18.00
2019-05-02T12:38:52.963Z,21.05
2019-05-02T12:41:29.587Z,18.55
2019-05-02T12:44:11.751Z,20.60
2019-05-02T12:46:45.481Z,19.25
2019-05-02T12:49:25.307Z,20.12
2019-05-02T12:52:01.897Z,20.08
2019-05-02T12:54:34.964Z,19.73
2019-05-02T12:57:12.515Z,21.52
2019-05-02T12:59:44.119Z,20.20
2019-05-02T13:02:27.029Z,19.95
2019-05-02T13:04:57.433Z,21.60
2019-05-02T13:07:31.738Z,21.70
2019-05-02T13:10:22.009Z,23.25
2019-05-02T13:13:02.808Z,21.45
2019-05-02T13:15:38.194Z,21.23
2019-05-02T13:18:12.509Z,21.05
2019-05-02T13:20:48.949Z,23.05
2019-05-02T13:23:40.087Z,23.20
2019-05-02T13:26:21.795Z,23.30
2019-05-02T13:28:52.690Z,22.20
2019-05-02T13:31:49.565Z,20.82
2019-05-02T13:34:54.089Z,21.57
2019-05-02T13:37:44.149Z,23.92
2019-05-02T13:40:29.236Z,22.65
2019-05-02T13:43:05.410Z,23.00
2019-05-02T13:46:07.600Z,23.32
2019-05-02T13:48:37.776Z,21.93
2019-05-02T13:51:07.957Z,23.12
2019-05-02T13:56:52.771Z,24.63
2019-05-02T13:59:23.822Z,23.62
2019-05-02T14:01:55.932Z,24.60
2019-05-02T14:04:26.317Z,28.38
2019-05-02T14:07:00.038Z,30.15
2019-05-02T14:09:58.330Z,32.93
2019-05-02T14:12:47.226Z,30.23
2019-05-02T14:15:22.133Z,32.10
2019-05-02T14:17:54.286Z,33.53
2019-05-02T14:20:25.631Z,30.32
2019-05-02T14:22:56.040Z,32.05
2019-05-02T14:25:35.084Z,27.10
2019-05-02T14:28:15.899Z,27.90
2019-05-02T14:30:54.519Z,29.27
2019-05-02T14:33:27.109Z,29.65
2019-05-02T14:35:57.657Z,29.40
2019-05-02T14:38:29.042Z,32.17
2019-05-02T14:41:12.445Z,31.42
2019-05-02T14:43:56.484Z,30.82
2019-05-02T14:46:37.569Z,33.18
2019-05-02T14:49:04.979Z,31.00
2019-05-02T14:51:36.777Z,33.02
2019-05-02T14:54:08.664Z,31.17
2019-05-02T14:57:11.779Z,30.77
2019-05-02T14:59:42.870Z,32.60
2019-05-02T15:02:39.230Z,31.40
2019-05-02T15:05:09.638Z,33.20
2019-05-02T15:07:39.913Z,33.33
2019-05-02T15:10:12.513Z,33.70
2019-05-02T15:12:51.707Z,33.42
2019-05-02T15:15:23.095Z,33.88
2019-05-02T15:17:53.555Z,32.83
2019-05-02T15:20:36.552Z,33.60
2019-05-02T15:22:56.715Z,31.57
2019-05-02T15:25:28.429Z,31.65
2019-05-02T15:28:02.022Z,33.15
2019-05-02T15:30:30.997Z,33.83
2019-05-02T15:33:12.563Z,34.60
2019-05-02T15:36:03.189Z,31.65
2019-05-02T15:38:37.161Z,32.75
2019-05-02T15:41:09.505Z,33.15
2019-05-02T15:43:39.367Z,34.55
2019-05-02T15:46:09.678Z,31.87
2019-05-02T15:48:42.169Z,33.95
2019-05-02T15:51:15.344Z,32.83
2019-05-02T15:54:08.091Z,34.60
2019-05-02T15:56:52.264Z,30.57
2019-05-02T15:59:37.720Z,27.90
2019-05-02T16:02:17.563Z,29.50
2019-05-02T16:04:46.220Z,26.17
2019-05-02T16:07:20.084Z,28.98
2019-05-02T16:09:51.521Z,28.07
2019-05-02T16:12:22.374Z,30.08
2019-05-02T16:14:52.811Z,29.98
2019-05-02T16:17:29.531Z,29.82
2019-05-02T16:20:10.389Z,30.32
2019-05-02T16:22:46.320Z,32.58
2019-05-02T16:25:12.208Z,28.52
2019-05-02T16:27:47.977Z,29.50
2019-05-02T16:30:22.363Z,28.87
2019-05-02T16:33:02.827Z,29.32
2019-05-02T16:35:34.570Z,29.20
2019-05-02T16:38:04.964Z,27.45
2019-05-02T16:40:35.338Z,29.15
2019-05-02T16:43:12.159Z,29.45
2019-05-02T16:45:43.969Z,32.28
2019-05-02T16:48:17.241Z,32.60
2019-05-02T16:50:48.415Z,30.05
2019-05-02T16:53:22.654Z,30.17
2019-05-02T16:55:51.835Z,28.70
2019-05-02T16:58:23.305Z,27.85
2019-05-02T17:00:55.118Z,26.70
2019-05-02T17:03:26.601Z,29.32
2019-05-02T17:05:57.352Z,26.23
2019-05-02T17:08:58.503Z,25.57
2019-05-02T17:11:35.944Z,27.07
2019-05-02T17:14:11.598Z,25.25
2019-05-02T17:16:38.740Z,27.13
2019-05-02T17:19:09.168Z,26.97
2019-05-02T17:21:53.116Z,25.97
2019-05-02T17:24:17.310Z,26.87
2019-05-02T17:26:47.286Z,26.60
2019-05-02T17:29:21.456Z,23.20
2019-05-02T17:31:50.099Z,27.32
2019-05-02T17:34:30.067Z,24.85
2019-05-02T17:36:59.098Z,27.80
2019-05-02T17:39:30.528Z,28.38
2019-05-02T17:42:02.766Z,26.95
2019-05-02T17:44:35.216Z,26.45
2019-05-02T17:47:06.916Z,27.37
2019-05-02T17:49:39.254Z,25.25
2019-05-02T17:52:26.033Z,27.80
2019-05-02T17:54:52.843Z,26.82
2019-05-02T17:57:28.559Z,27.35
2019-05-02T17:59:58.279Z,25.72
2019-05-02T18:02:34.089Z,28.15
2019-05-02T18:05:05.588Z,27.37
2019-05-02T18:07:36.282Z,30.88
2019-05-02T18:10:14.300Z,29.40
2019-05-02T18:12:39.492Z,27.48
2019-05-02T18:15:13.411Z,29.50
2019-05-02T18:17:46.041Z,29.82
2019-05-02T18:20:16.092Z,29.50
2019-05-02T18:22:48.921Z,30.23
2019-05-02T18:25:21.638Z,30.85
2019-05-02T18:27:51.841Z,30.48
2019-05-02T18:30:26.866Z,28.92
2019-05-02T18:32:57.735Z,31.15
2019-05-02T18:35:43.032Z,29.32
2019-05-02T18:38:10.583Z,30.27
2019-05-02T18:40:42.562Z,30.92
2019-05-02T18:43:14.110Z,28.95
2019-05-02T18:45:46.503Z,11.88
2019-05-02T18:48:21.784Z,1.37
2019-05-02T18:50:52.673Z,0.50
2019-05-02T18:53:26.996Z,0.88
2019-05-02T18:55:56.843Z,1.15
2019-05-02T18:58:31.910Z,1.20
2019-05-02T19:01:03.529Z,1.17
2019-05-02T19:03:37.041Z,0.78
2019-05-02T19:06:07.834Z,1.32
2019-05-02T19:08:46.766Z,1.25
2019-05-02T19:11:17.571Z,2.90
2019-05-02T19:13:52.718Z,2.05
2019-05-02T19:16:28.569Z,2.55
2019-05-02T19:18:58.325Z,2.72
2019-05-02T19:21:36.763Z,2.20
2019-05-02T19:24:04.914Z,2.12
2019-05-02T19:26:35.567Z,2.22
2019-05-02T19:29:14.101Z,3.22
2019-05-02T19:31:52.322Z,3.27
2019-05-02T19:34:26.633Z,3.20
2019-05-02T19:36:57.815Z,3.37
2019-05-02T19:39:29.647Z,3.70
2019-05-02T19:42:01.736Z,5.00
2019-05-02T19:44:37.458Z,4.12
2019-05-02T19:47:12.526Z,4.08
2019-05-02T19:49:42.381Z,3.47
2019-05-02T19:52:12.842Z,3.92
2019-05-02T19:54:43.786Z,4.42
2019-05-02T19:57:17.144Z,3.75
2019-05-02T19:59:47.579Z,2.95
2019-05-02T20:02:17.952Z,3.40
2019-05-02T20:04:48.515Z,3.62
2019-05-02T20:07:18.966Z,3.67
2019-05-02T20:09:49.595Z,3.17
2019-05-02T20:12:21.888Z,3.92
2019-05-02T20:14:52.135Z,5.12
2019-05-02T20:17:24.052Z,4.08
2019-05-02T20:19:57.869Z,2.77
2019-05-02T20:22:31.642Z,2.17
2019-05-02T20:25:04.040Z,2.27
2019-05-02T20:27:37.615Z,1.67
2019-05-02T20:30:08.493Z,0.98
2019-05-02T20:32:39.065Z,0.47
2019-05-02T20:35:13.572Z,0.50
2019-05-02T20:37:44.048Z,0.95
2019-05-02T20:40:31.687Z,0.42
2019-05-02T20:43:02.622Z,0.57
2019-05-02T20:45:35.427Z,0.20
2019-05-02T20:48:06.130Z,0.10
2019-05-02T20:50:44.402Z,0.10
2019-05-02T20:53:14.956Z,0.72
2019-05-02T20:55:45.576Z,0.65
2019-05-02T20:58:15.982Z,0.40
2019-05-02T21:00:46.812Z,0.10
2019-05-02T21:03:17.538Z,0.10
2019-05-02T21:06:13.031Z,0.10
2019-05-02T21:08:56.298Z,0.10
2019-05-02T21:11:27.267Z,0.10
2019-05-02T21:13:57.723Z,0.10
2019-05-02T21:16:28.578Z,0.20
2019-05-02T21:18:59.142Z,0.10
2019-05-02T21:21:29.962Z,0.10
2019-05-02T21:24:02.192Z,0.10
2019-05-02T21:26:32.961Z,0.10
2019-05-02T21:29:07.713Z,0.10
2019-05-02T21:31:37.971Z,0.10
2019-05-02T21:34:08.091Z,0.10
2019-05-02T21:36:38.460Z,0.35
2019-05-02T21:39:12.180Z,0.10
2019-05-02T21:41:43.473Z,0.10
2019-05-02T21:44:16.723Z,0.10
2019-05-02T21:46:47.032Z,0.10
2019-05-02T21:49:43.428Z,0.10
2019-05-02T21:52:32.861Z,0.10
2019-05-02T21:55:14.330Z,0.10
2019-05-02T21:57:44.658Z,0.08
2019-05-02T22:00:42.180Z,0.10
2019-05-02T22:03:12.750Z,0.10
2019-05-02T22:05:43.262Z,0.10
2019-05-02T22:08:13.809Z,0.10
2019-05-02T22:10:47.283Z,0.10
2019-05-02T22:13:19.271Z,0.10
2019-05-02T22:15:51.614Z,0.10
2019-05-02T22:18:24.474Z,0.10
2019-05-02T22:20:56.585Z,0.10
2019-05-02T22:23:27.184Z,0.13
2019-05-02T22:25:59.599Z,0.10
2019-05-02T22:28:29.907Z,0.10
2019-05-02T22:31:06.951Z,0.10
2019-05-02T22:33:37.603Z,0.10
2019-05-02T22:36:12.384Z,0.10
2019-05-02T22:38:54.355Z,0.55
2019-05-02T22:41:24.861Z,0.23
2019-05-02T22:43:55.285Z,0.33
2019-05-02T22:46:45.413Z,0.10
2019-05-02T22:49:16.423Z,0.10
2019-05-02T22:51:46.938Z,0.10
2019-05-02T22:54:26.785Z,0.10
2019-05-02T22:56:49.553Z,0.10
2019-05-02T22:59:23.716Z,0.20
2019-05-02T23:01:52.879Z,0.10
2019-05-02T23:04:23.560Z,0.10
2019-05-02T23:06:54.948Z,0.10
2019-05-02T23:09:25.380Z,0.10
2019-05-02T23:11:55.642Z,0.20
2019-05-02T23:14:28.203Z,0.10
2019-05-02T23:16:58.349Z,0.10
2019-05-02T23:19:28.483Z,0.10
2019-05-02T23:21:59.033Z,0.65
2019-05-02T23:24:44.296Z,0.20
2019-05-02T23:27:23.903Z,0.10
2019-05-02T23:29:55.353Z,0.10
2019-05-02T23:32:26.861Z,0.10
2019-05-02T23:34:57.090Z,0.10
2019-05-02T23:37:27.402Z,0.17
2019-05-02T23:39:57.841Z,0.10
2019-05-02T23:42:28.553Z,0.65
2019-05-02T23:44:59.799Z,0.10
2019-05-02T23:47:30.081Z,0.10
2019-05-02T23:50:00.425Z,0.20
2019-05-02T23:52:31.598Z,0.10
2019-05-02T23:55:03.112Z,0.10
2019-05-02T23:57:34.411Z,0.50
